sensor_id;sensor_type;location;lat;lon;timestamp;P1;durP1;ratioP1;P2;durP2;ratioP2
44885;SDS011;36669;51.428;21.162;2022-07-06T00:02:16;16.65;;;14.80;;
44885;SDS011;36669;51.428;21.162;2022-07-06T00:04:43;18.27;;;16.15;;
44885;SDS011;36669;51.428;21.162;2022-07-06T00:07:10;19.20;;;17.17;;
44885;SDS011;36669;51.428;21.162;2022-07-06T00:09:37;21.40;;;17.00;;
44885;SDS011;36669;51.428;21.162;2022-07-06T00:12:03;17.83;;;16.00;;
44885;SDS011;36669;51.428;21.162;2022-07-06T00:14:30;18.50;;;16.50;;
44885;SDS011;36669;51.428;21.162;2022-07-06T00:16:57;18.92;;;17.00;;
44885;SDS011;36669;51.428;21.162;2022-07-06T00:19:25;17.30;;;15.15;;
44885;SDS011;36669;51.428;21.162;2022-07-06T00:21:53;17.52;;;15.00;;
44885;SDS011;36669;51.428;21.162;2022-07-06T00:24:22;19.70;;;16.17;;
44885;SDS011;36669;51.428;21.162;2022-07-06T00:26:48;16.02;;;14.48;;
44885;SDS011;36669;51.428;21.162;2022-07-06T00:29:15;15.63;;;14.02;;
44885;SDS011;36669;51.428;21.162;2022-07-06T00:31:45;14.82;;;13.30;;
44885;SDS011;36669;51.428;21.162;2022-07-06T00:34:13;15.05;;;13.48;;
44885;SDS011;36669;51.428;21.162;2022-07-06T00:36:39;14.75;;;13.18;;
44885;SDS011;36669;51.428;21.162;2022-07-06T00:39:06;14.88;;;13.38;;
44885;SDS011;36669;51.428;21.162;2022-07-06T00:41:33;14.95;;;13.35;;
44885;SDS011;36669;51.428;21.162;2022-07-06T00:43:59;13.80;;;12.27;;
44885;SDS011;36669;51.428;21.162;2022-07-06T00:46:28;13.77;;;11.90;;
44885;SDS011;36669;51.428;21.162;2022-07-06T00:49:04;15.13;;;13.00;;
44885;SDS011;36669;51.428;21.162;2022-07-06T00:51:32;12.60;;;11.40;;
44885;SDS011;36669;51.428;21.162;2022-07-06T00:54:03;13.55;;;12.23;;
44885;SDS011;36669;51.428;21.162;2022-07-06T00:56:31;13.93;;;12.35;;
44885;SDS011;36669;51.428;21.162;2022-07-06T00:59:02;13.55;;;12.18;;
44885;SDS011;36669;51.428;21.162;2022-07-06T01:01:30;12.70;;;11.40;;
44885;SDS011;36669;51.428;21.162;2022-07-06T01:03:56;17.23;;;11.68;;
44885;SDS011;36669;51.428;21.162;2022-07-06T01:06:23;13.95;;;12.60;;
44885;SDS011;36669;51.428;21.162;2022-07-06T01:08:51;13.75;;;12.32;;
44885;SDS011;36669;51.428;21.162;2022-07-06T01:11:18;11.73;;;10.32;;
44885;SDS011;36669;51.428;21.162;2022-07-06T01:13:47;14.38;;;12.25;;
44885;SDS011;36669;51.428;21.162;2022-07-06T01:16:15;13.68;;;11.90;;
44885;SDS011;36669;51.428;21.162;2022-07-06T01:18:43;12.98;;;11.68;;
44885;SDS011;36669;51.428;21.162;2022-07-06T01:21:11;13.30;;;11.30;;
44885;SDS011;36669;51.428;21.162;2022-07-06T01:23:41;13.43;;;12.13;;
44885;SDS011;36669;51.428;21.162;2022-07-06T01:26:18;13.60;;;12.13;;
44885;SDS011;36669;51.428;21.162;2022-07-06T01:28:54;11.88;;;10.68;;
44885;SDS011;36669;51.428;21.162;2022-07-06T01:31:23;14.43;;;12.18;;
44885;SDS011;36669;51.428;21.162;2022-07-06T01:33:53;13.90;;;11.13;;
44885;SDS011;36669;51.428;21.162;2022-07-06T01:36:23;11.25;;;10.20;;
44885;SDS011;36669;51.428;21.162;2022-07-06T01:38:51;11.60;;;10.50;;
44885;SDS011;36669;51.428;21.162;2022-07-06T01:41:18;12.68;;;10.70;;
44885;SDS011;36669;51.428;21.162;2022-07-06T01:43:46;11.57;;;10.38;;
44885;SDS011;36669;51.428;21.162;2022-07-06T01:46:14;11.75;;;10.52;;
44885;SDS011;36669;51.428;21.162;2022-07-06T01:48:42;12.23;;;10.48;;
44885;SDS011;36669;51.428;21.162;2022-07-06T01:51:09;11.98;;;10.68;;
44885;SDS011;36669;51.428;21.162;2022-07-06T01:53:37;10.75;;;9.65;;
44885;SDS011;36669;51.428;21.162;2022-07-06T01:56:03;13.20;;;9.73;;
44885;SDS011;36669;51.428;21.162;2022-07-06T01:58:30;10.35;;;9.20;;
44885;SDS011;36669;51.428;21.162;2022-07-06T02:00:59;13.10;;;10.18;;
44885;SDS011;36669;51.428;21.162;2022-07-06T02:03:26;11.73;;;9.70;;
44885;SDS011;36669;51.428;21.162;2022-07-06T02:05:51;11.80;;;10.27;;
44885;SDS011;36669;51.428;21.162;2022-07-06T02:08:20;12.98;;;10.43;;
44885;SDS011;36669;51.428;21.162;2022-07-06T02:10:45;11.30;;;10.02;;
44885;SDS011;36669;51.428;21.162;2022-07-06T02:13:13;10.68;;;9.00;;
44885;SDS011;36669;51.428;21.162;2022-07-06T02:15:41;10.20;;;9.20;;
44885;SDS011;36669;51.428;21.162;2022-07-06T02:18:09;11.27;;;8.95;;
44885;SDS011;36669;51.428;21.162;2022-07-06T02:20:36;10.90;;;9.45;;
44885;SDS011;36669;51.428;21.162;2022-07-06T02:23:04;9.73;;;8.73;;
44885;SDS011;36669;51.428;21.162;2022-07-06T02:25:32;11.38;;;9.88;;
44885;SDS011;36669;51.428;21.162;2022-07-06T02:27:57;12.30;;;11.20;;
44885;SDS011;36669;51.428;21.162;2022-07-06T02:30:24;15.15;;;9.63;;
44885;SDS011;36669;51.428;21.162;2022-07-06T02:32:51;10.55;;;9.60;;
44885;SDS011;36669;51.428;21.162;2022-07-06T02:35:17;10.77;;;9.77;;
44885;SDS011;36669;51.428;21.162;2022-07-06T02:37:44;9.50;;;8.60;;
44885;SDS011;36669;51.428;21.162;2022-07-06T02:40:11;11.57;;;9.38;;
44885;SDS011;36669;51.428;21.162;2022-07-06T02:42:37;9.70;;;8.80;;
44885;SDS011;36669;51.428;21.162;2022-07-06T02:45:04;9.38;;;8.48;;
44885;SDS011;36669;51.428;21.162;2022-07-06T02:47:31;12.50;;;9.23;;
44885;SDS011;36669;51.428;21.162;2022-07-06T02:49:58;8.75;;;7.90;;
44885;SDS011;36669;51.428;21.162;2022-07-06T02:52:28;7.97;;;7.15;;
44885;SDS011;36669;51.428;21.162;2022-07-06T02:54:56;8.63;;;7.78;;
44885;SDS011;36669;51.428;21.162;2022-07-06T02:57:24;8.00;;;6.90;;
44885;SDS011;36669;51.428;21.162;2022-07-06T02:59:51;7.55;;;6.90;;
44885;SDS011;36669;51.428;21.162;2022-07-06T03:02:19;7.88;;;7.18;;
44885;SDS011;36669;51.428;21.162;2022-07-06T03:04:46;8.45;;;6.00;;
44885;SDS011;36669;51.428;21.162;2022-07-06T03:07:14;6.72;;;6.13;;
44885;SDS011;36669;51.428;21.162;2022-07-06T03:09:39;6.63;;;5.80;;
44885;SDS011;36669;51.428;21.162;2022-07-06T03:12:06;10.23;;;6.65;;
44885;SDS011;36669;51.428;21.162;2022-07-06T03:14:36;6.93;;;5.72;;
44885;SDS011;36669;51.428;21.162;2022-07-06T03:17:04;7.03;;;5.90;;
44885;SDS011;36669;51.428;21.162;2022-07-06T03:19:30;6.50;;;5.72;;
44885;SDS011;36669;51.428;21.162;2022-07-06T03:21:56;5.93;;;5.40;;
44885;SDS011;36669;51.428;21.162;2022-07-06T03:24:23;6.10;;;5.55;;
44885;SDS011;36669;51.428;21.162;2022-07-06T03:26:50;6.05;;;5.45;;
44885;SDS011;36669;51.428;21.162;2022-07-06T03:29:18;6.65;;;6.05;;
44885;SDS011;36669;51.428;21.162;2022-07-06T03:31:45;5.90;;;5.40;;
44885;SDS011;36669;51.428;21.162;2022-07-06T03:34:10;6.07;;;5.47;;
44885;SDS011;36669;51.428;21.162;2022-07-06T03:36:37;5.88;;;5.35;;
44885;SDS011;36669;51.428;21.162;2022-07-06T03:39:05;8.93;;;5.15;;
44885;SDS011;36669;51.428;21.162;2022-07-06T03:41:35;7.10;;;5.82;;
44885;SDS011;36669;51.428;21.162;2022-07-06T03:44:02;5.43;;;4.93;;
44885;SDS011;36669;51.428;21.162;2022-07-06T03:46:29;7.65;;;5.80;;
44885;SDS011;36669;51.428;21.162;2022-07-06T03:48:55;6.45;;;5.05;;
44885;SDS011;36669;51.428;21.162;2022-07-06T03:51:22;6.35;;;5.50;;
44885;SDS011;36669;51.428;21.162;2022-07-06T03:53:50;6.10;;;5.38;;
44885;SDS011;36669;51.428;21.162;2022-07-06T03:56:18;5.82;;;5.10;;
44885;SDS011;36669;51.428;21.162;2022-07-06T03:58:46;6.43;;;5.85;;
44885;SDS011;36669;51.428;21.162;2022-07-06T04:01:14;8.90;;;6.30;;
44885;SDS011;36669;51.428;21.162;2022-07-06T04:03:41;6.43;;;5.00;;
44885;SDS011;36669;51.428;21.162;2022-07-06T04:06:09;7.10;;;5.75;;
44885;SDS011;36669;51.428;21.162;2022-07-06T04:08:36;6.32;;;5.40;;
44885;SDS011;36669;51.428;21.162;2022-07-06T04:11:03;6.18;;;5.57;;
44885;SDS011;36669;51.428;21.162;2022-07-06T04:13:31;5.80;;;4.93;;
44885;SDS011;36669;51.428;21.162;2022-07-06T04:15:59;5.60;;;5.10;;
44885;SDS011;36669;51.428;21.162;2022-07-06T04:18:26;7.82;;;5.43;;
44885;SDS011;36669;51.428;21.162;2022-07-06T04:20:53;8.55;;;5.15;;
44885;SDS011;36669;51.428;21.162;2022-07-06T04:23:20;5.85;;;4.88;;
44885;SDS011;36669;51.428;21.162;2022-07-06T04:25:46;6.15;;;4.63;;
44885;SDS011;36669;51.428;21.162;2022-07-06T04:28:13;7.68;;;4.80;;
44885;SDS011;36669;51.428;21.162;2022-07-06T04:30:40;7.22;;;5.25;;
44885;SDS011;36669;51.428;21.162;2022-07-06T04:33:06;5.78;;;4.82;;
44885;SDS011;36669;51.428;21.162;2022-07-06T04:35:34;8.20;;;4.93;;
44885;SDS011;36669;51.428;21.162;2022-07-06T04:38:02;6.43;;;4.40;;
44885;SDS011;36669;51.428;21.162;2022-07-06T04:40:30;8.07;;;4.57;;
44885;SDS011;36669;51.428;21.162;2022-07-06T04:42:58;6.95;;;4.55;;
44885;SDS011;36669;51.428;21.162;2022-07-06T04:45:27;8.45;;;6.38;;
44885;SDS011;36669;51.428;21.162;2022-07-06T04:47:54;4.80;;;4.32;;
44885;SDS011;36669;51.428;21.162;2022-07-06T04:50:20;4.68;;;4.20;;
44885;SDS011;36669;51.428;21.162;2022-07-06T04:52:48;5.65;;;4.22;;
44885;SDS011;36669;51.428;21.162;2022-07-06T04:55:15;5.60;;;3.90;;
44885;SDS011;36669;51.428;21.162;2022-07-06T04:57:43;5.75;;;4.35;;
44885;SDS011;36669;51.428;21.162;2022-07-06T05:00:13;4.72;;;3.95;;
44885;SDS011;36669;51.428;21.162;2022-07-06T05:02:41;7.10;;;4.40;;
44885;SDS011;36669;51.428;21.162;2022-07-06T05:05:08;5.47;;;4.47;;
44885;SDS011;36669;51.428;21.162;2022-07-06T05:07:35;8.32;;;4.57;;
44885;SDS011;36669;51.428;21.162;2022-07-06T05:10:02;4.93;;;4.00;;
44885;SDS011;36669;51.428;21.162;2022-07-06T05:12:30;4.85;;;4.15;;
44885;SDS011;36669;51.428;21.162;2022-07-06T05:14:57;6.43;;;4.00;;
44885;SDS011;36669;51.428;21.162;2022-07-06T05:17:25;5.63;;;4.55;;
44885;SDS011;36669;51.428;21.162;2022-07-06T05:19:52;6.00;;;5.13;;
44885;SDS011;36669;51.428;21.162;2022-07-06T05:22:21;7.72;;;4.85;;
44885;SDS011;36669;51.428;21.162;2022-07-06T05:24:46;6.63;;;5.25;;
44885;SDS011;36669;51.428;21.162;2022-07-06T05:27:15;5.53;;;5.03;;
44885;SDS011;36669;51.428;21.162;2022-07-06T05:29:43;8.48;;;5.35;;
44885;SDS011;36669;51.428;21.162;2022-07-06T05:32:09;9.20;;;5.32;;
44885;SDS011;36669;51.428;21.162;2022-07-06T05:34:35;9.07;;;5.18;;
44885;SDS011;36669;51.428;21.162;2022-07-06T05:37:00;6.30;;;5.70;;
44885;SDS011;36669;51.428;21.162;2022-07-06T05:39:29;7.43;;;4.95;;
44885;SDS011;36669;51.428;21.162;2022-07-06T05:41:56;5.57;;;4.90;;
44885;SDS011;36669;51.428;21.162;2022-07-06T05:44:24;5.45;;;4.72;;
44885;SDS011;36669;51.428;21.162;2022-07-06T05:46:50;8.25;;;6.53;;
44885;SDS011;36669;51.428;21.162;2022-07-06T05:49:17;5.88;;;5.15;;
44885;SDS011;36669;51.428;21.162;2022-07-06T05:51:44;7.07;;;4.43;;
44885;SDS011;36669;51.428;21.162;2022-07-06T05:54:11;7.75;;;5.05;;
44885;SDS011;36669;51.428;21.162;2022-07-06T05:56:38;6.10;;;4.93;;
44885;SDS011;36669;51.428;21.162;2022-07-06T05:59:05;7.47;;;4.90;;
44885;SDS011;36669;51.428;21.162;2022-07-06T06:01:32;5.95;;;4.80;;
44885;SDS011;36669;51.428;21.162;2022-07-06T06:03:59;6.95;;;5.05;;
44885;SDS011;36669;51.428;21.162;2022-07-06T06:06:27;6.53;;;4.65;;
44885;SDS011;36669;51.428;21.162;2022-07-06T06:08:54;5.35;;;4.85;;
44885;SDS011;36669;51.428;21.162;2022-07-06T06:11:22;4.35;;;3.95;;
44885;SDS011;36669;51.428;21.162;2022-07-06T06:13:47;9.50;;;4.40;;
44885;SDS011;36669;51.428;21.162;2022-07-06T06:16:14;6.35;;;3.30;;
44885;SDS011;36669;51.428;21.162;2022-07-06T06:18:41;4.40;;;3.58;;
44885;SDS011;36669;51.428;21.162;2022-07-06T06:21:09;4.63;;;3.00;;
44885;SDS011;36669;51.428;21.162;2022-07-06T06:23:36;5.20;;;3.60;;
44885;SDS011;36669;51.428;21.162;2022-07-06T06:26:03;4.57;;;3.72;;
44885;SDS011;36669;51.428;21.162;2022-07-06T06:28:28;4.82;;;2.97;;
44885;SDS011;36669;51.428;21.162;2022-07-06T06:30:56;3.92;;;3.30;;
44885;SDS011;36669;51.428;21.162;2022-07-06T06:33:23;4.18;;;2.60;;
44885;SDS011;36669;51.428;21.162;2022-07-06T06:35:50;3.42;;;2.70;;
44885;SDS011;36669;51.428;21.162;2022-07-06T06:38:21;4.18;;;3.05;;
44885;SDS011;36669;51.428;21.162;2022-07-06T06:40:49;4.15;;;2.50;;
44885;SDS011;36669;51.428;21.162;2022-07-06T06:43:14;8.73;;;3.17;;
44885;SDS011;36669;51.428;21.162;2022-07-06T06:45:42;2.38;;;2.05;;
44885;SDS011;36669;51.428;21.162;2022-07-06T06:48:08;5.13;;;2.85;;
44885;SDS011;36669;51.428;21.162;2022-07-06T06:50:36;4.50;;;2.50;;
44885;SDS011;36669;51.428;21.162;2022-07-06T06:53:03;4.65;;;2.25;;
44885;SDS011;36669;51.428;21.162;2022-07-06T06:55:31;2.55;;;2.03;;
44885;SDS011;36669;51.428;21.162;2022-07-06T06:58:00;5.35;;;2.17;;
44885;SDS011;36669;51.428;21.162;2022-07-06T07:00:26;4.53;;;2.45;;
44885;SDS011;36669;51.428;21.162;2022-07-06T07:02:54;2.55;;;2.10;;
44885;SDS011;36669;51.428;21.162;2022-07-06T07:05:24;3.35;;;2.08;;
44885;SDS011;36669;51.428;21.162;2022-07-06T07:07:52;8.77;;;2.90;;
44885;SDS011;36669;51.428;21.162;2022-07-06T07:10:18;3.35;;;1.90;;
44885;SDS011;36669;51.428;21.162;2022-07-06T07:12:45;3.53;;;2.20;;
44885;SDS011;36669;51.428;21.162;2022-07-06T07:15:13;2.33;;;1.83;;
44885;SDS011;36669;51.428;21.162;2022-07-06T07:17:40;3.22;;;1.75;;
44885;SDS011;36669;51.428;21.162;2022-07-06T07:20:09;2.15;;;1.60;;
44885;SDS011;36669;51.428;21.162;2022-07-06T07:22:36;4.63;;;2.00;;
44885;SDS011;36669;51.428;21.162;2022-07-06T07:25:04;3.45;;;1.80;;
44885;SDS011;36669;51.428;21.162;2022-07-06T07:27:34;4.13;;;2.00;;
44885;SDS011;36669;51.428;21.162;2022-07-06T07:30:00;2.45;;;2.03;;
44885;SDS011;36669;51.428;21.162;2022-07-06T07:32:27;3.35;;;2.08;;
44885;SDS011;36669;51.428;21.162;2022-07-06T07:34:54;3.17;;;2.13;;
44885;SDS011;36669;51.428;21.162;2022-07-06T07:37:21;3.25;;;2.30;;
44885;SDS011;36669;51.428;21.162;2022-07-06T07:39:48;5.72;;;2.38;;
44885;SDS011;36669;51.428;21.162;2022-07-06T07:42:14;3.53;;;2.40;;
44885;SDS011;36669;51.428;21.162;2022-07-06T07:44:41;6.72;;;2.70;;
44885;SDS011;36669;51.428;21.162;2022-07-06T07:47:07;6.35;;;2.53;;
44885;SDS011;36669;51.428;21.162;2022-07-06T07:49:35;4.50;;;2.50;;
44885;SDS011;36669;51.428;21.162;2022-07-06T07:52:02;4.22;;;2.20;;
44885;SDS011;36669;51.428;21.162;2022-07-06T07:54:29;5.22;;;2.35;;
44885;SDS011;36669;51.428;21.162;2022-07-06T07:56:56;4.35;;;2.30;;
44885;SDS011;36669;51.428;21.162;2022-07-06T07:59:24;4.70;;;2.08;;
44885;SDS011;36669;51.428;21.162;2022-07-06T08:01:51;3.40;;;2.53;;
44885;SDS011;36669;51.428;21.162;2022-07-06T08:04:18;3.50;;;2.33;;
44885;SDS011;36669;51.428;21.162;2022-07-06T08:06:43;3.92;;;2.55;;
44885;SDS011;36669;51.428;21.162;2022-07-06T08:09:11;3.42;;;2.65;;
44885;SDS011;36669;51.428;21.162;2022-07-06T08:11:39;4.93;;;2.45;;
44885;SDS011;36669;51.428;21.162;2022-07-06T08:14:06;2.45;;;2.25;;
44885;SDS011;36669;51.428;21.162;2022-07-06T08:16:33;6.05;;;2.30;;
44885;SDS011;36669;51.428;21.162;2022-07-06T08:18:59;3.45;;;2.80;;
44885;SDS011;36669;51.428;21.162;2022-07-06T08:21:37;6.82;;;2.97;;
44885;SDS011;36669;51.428;21.162;2022-07-06T08:24:02;5.05;;;2.55;;
44885;SDS011;36669;51.428;21.162;2022-07-06T08:26:31;5.50;;;3.40;;
44885;SDS011;36669;51.428;21.162;2022-07-06T08:28:57;5.55;;;3.90;;
44885;SDS011;36669;51.428;21.162;2022-07-06T08:31:25;7.43;;;4.32;;
44885;SDS011;36669;51.428;21.162;2022-07-06T08:33:53;6.13;;;4.20;;
44885;SDS011;36669;51.428;21.162;2022-07-06T08:36:20;6.03;;;3.78;;
44885;SDS011;36669;51.428;21.162;2022-07-06T08:38:48;5.03;;;3.78;;
44885;SDS011;36669;51.428;21.162;2022-07-06T08:41:15;3.97;;;3.58;;
44885;SDS011;36669;51.428;21.162;2022-07-06T08:43:43;6.60;;;3.60;;
44885;SDS011;36669;51.428;21.162;2022-07-06T08:46:13;4.53;;;3.80;;
44885;SDS011;36669;51.428;21.162;2022-07-06T08:48:40;5.60;;;3.53;;
44885;SDS011;36669;51.428;21.162;2022-07-06T08:51:12;4.18;;;3.78;;
44885;SDS011;36669;51.428;21.162;2022-07-06T08:53:51;4.13;;;3.72;;
44885;SDS011;36669;51.428;21.162;2022-07-06T08:56:18;6.88;;;4.30;;
44885;SDS011;36669;51.428;21.162;2022-07-06T08:58:45;5.28;;;3.55;;
44885;SDS011;36669;51.428;21.162;2022-07-06T09:01:11;7.80;;;4.65;;
44885;SDS011;36669;51.428;21.162;2022-07-06T09:03:41;4.88;;;3.65;;
44885;SDS011;36669;51.428;21.162;2022-07-06T09:06:11;8.10;;;4.00;;
44885;SDS011;36669;51.428;21.162;2022-07-06T09:08:55;4.85;;;4.15;;
44885;SDS011;36669;51.428;21.162;2022-07-06T09:11:23;6.30;;;3.88;;
44885;SDS011;36669;51.428;21.162;2022-07-06T09:13:53;7.63;;;4.00;;
44885;SDS011;36669;51.428;21.162;2022-07-06T09:16:25;6.38;;;3.90;;
44885;SDS011;36669;51.428;21.162;2022-07-06T09:21:27;4.95;;;3.03;;
44885;SDS011;36669;51.428;21.162;2022-07-06T09:23:58;4.97;;;3.00;;
44885;SDS011;36669;51.428;21.162;2022-07-06T09:26:33;4.72;;;3.15;;
44885;SDS011;36669;51.428;21.162;2022-07-06T09:29:01;4.85;;;3.30;;
44885;SDS011;36669;51.428;21.162;2022-07-06T09:31:28;12.18;;;3.58;;
44885;SDS011;36669;51.428;21.162;2022-07-06T09:34:05;6.60;;;2.88;;
44885;SDS011;36669;51.428;21.162;2022-07-06T09:36:48;6.05;;;3.00;;
44885;SDS011;36669;51.428;21.162;2022-07-06T09:39:27;6.57;;;3.30;;
44885;SDS011;36669;51.428;21.162;2022-07-06T09:41:56;3.63;;;2.95;;
44885;SDS011;36669;51.428;21.162;2022-07-06T09:44:26;6.68;;;3.00;;
44885;SDS011;36669;51.428;21.162;2022-07-06T09:46:57;5.68;;;2.95;;
44885;SDS011;36669;51.428;21.162;2022-07-06T09:49:25;4.50;;;2.72;;
44885;SDS011;36669;51.428;21.162;2022-07-06T09:51:59;3.80;;;2.88;;
44885;SDS011;36669;51.428;21.162;2022-07-06T09:54:27;3.30;;;2.58;;
44885;SDS011;36669;51.428;21.162;2022-07-06T09:56:56;3.65;;;2.60;;
44885;SDS011;36669;51.428;21.162;2022-07-06T09:59:28;4.97;;;2.65;;
44885;SDS011;36669;51.428;21.162;2022-07-06T10:01:57;4.18;;;2.53;;
44885;SDS011;36669;51.428;21.162;2022-07-06T10:04:27;3.30;;;2.35;;
44885;SDS011;36669;51.428;21.162;2022-07-06T10:06:55;3.42;;;2.55;;
44885;SDS011;36669;51.428;21.162;2022-07-06T10:09:27;6.38;;;2.85;;
44885;SDS011;36669;51.428;21.162;2022-07-06T10:11:56;6.68;;;3.00;;
44885;SDS011;36669;51.428;21.162;2022-07-06T10:14:26;3.08;;;2.47;;
44885;SDS011;36669;51.428;21.162;2022-07-06T10:16:55;3.17;;;2.53;;
44885;SDS011;36669;51.428;21.162;2022-07-06T10:19:24;9.13;;;3.00;;
44885;SDS011;36669;51.428;21.162;2022-07-06T10:21:53;5.15;;;2.90;;
44885;SDS011;36669;51.428;21.162;2022-07-06T10:24:28;4.28;;;2.55;;
44885;SDS011;36669;51.428;21.162;2022-07-06T10:26:56;3.95;;;2.63;;
44885;SDS011;36669;51.428;21.162;2022-07-06T10:29:22;5.63;;;2.42;;
44885;SDS011;36669;51.428;21.162;2022-07-06T10:31:50;3.92;;;1.80;;
44885;SDS011;36669;51.428;21.162;2022-07-06T10:34:19;4.80;;;2.00;;
44885;SDS011;36669;51.428;21.162;2022-07-06T10:36:48;10.88;;;2.63;;
44885;SDS011;36669;51.428;21.162;2022-07-06T10:39:37;3.53;;;1.63;;
44885;SDS011;36669;51.428;21.162;2022-07-06T10:42:04;2.40;;;1.10;;
44885;SDS011;36669;51.428;21.162;2022-07-06T10:44:31;4.38;;;1.40;;
44885;SDS011;36669;51.428;21.162;2022-07-06T10:46:58;6.57;;;1.80;;
44885;SDS011;36669;51.428;21.162;2022-07-06T10:49:28;5.07;;;1.55;;
44885;SDS011;36669;51.428;21.162;2022-07-06T10:51:56;2.80;;;1.85;;
44885;SDS011;36669;51.428;21.162;2022-07-06T10:54:23;2.22;;;1.63;;
44885;SDS011;36669;51.428;21.162;2022-07-06T10:56:50;2.20;;;1.33;;
44885;SDS011;36669;51.428;21.162;2022-07-06T10:59:19;4.00;;;1.65;;
44885;SDS011;36669;51.428;21.162;2022-07-06T11:02:16;2.90;;;1.00;;
44885;SDS011;36669;51.428;21.162;2022-07-06T11:04:44;1.95;;;1.30;;
44885;SDS011;36669;51.428;21.162;2022-07-06T11:07:15;1.95;;;1.27;;
44885;SDS011;36669;51.428;21.162;2022-07-06T11:09:57;2.33;;;1.25;;
44885;SDS011;36669;51.428;21.162;2022-07-06T11:12:27;5.17;;;1.40;;
44885;SDS011;36669;51.428;21.162;2022-07-06T11:14:54;3.92;;;1.25;;
44885;SDS011;36669;51.428;21.162;2022-07-06T11:17:20;3.63;;;1.08;;
44885;SDS011;36669;51.428;21.162;2022-07-06T11:19:55;3.78;;;1.10;;
44885;SDS011;36669;51.428;21.162;2022-07-06T11:22:44;3.10;;;1.00;;
44885;SDS011;36669;51.428;21.162;2022-07-06T11:25:12;1.45;;;1.20;;
44885;SDS011;36669;51.428;21.162;2022-07-06T11:27:40;2.00;;;1.30;;
44885;SDS011;36669;51.428;21.162;2022-07-06T11:30:11;2.90;;;1.27;;
44885;SDS011;36669;51.428;21.162;2022-07-06T11:32:39;3.60;;;1.08;;
44885;SDS011;36669;51.428;21.162;2022-07-06T11:35:05;2.88;;;1.23;;
44885;SDS011;36669;51.428;21.162;2022-07-06T11:37:32;1.25;;;1.05;;
44885;SDS011;36669;51.428;21.162;2022-07-06T11:40:05;3.92;;;1.23;;
44885;SDS011;36669;51.428;21.162;2022-07-06T11:42:31;2.33;;;1.10;;
44885;SDS011;36669;51.428;21.162;2022-07-06T11:44:57;4.18;;;1.42;;
44885;SDS011;36669;51.428;21.162;2022-07-06T11:47:30;4.20;;;1.30;;
44885;SDS011;36669;51.428;21.162;2022-07-06T11:49:58;2.92;;;1.40;;
44885;SDS011;36669;51.428;21.162;2022-07-06T11:52:26;3.47;;;1.35;;
44885;SDS011;36669;51.428;21.162;2022-07-06T11:55:02;1.00;;;0.90;;
44885;SDS011;36669;51.428;21.162;2022-07-06T11:57:31;2.00;;;1.00;;
44885;SDS011;36669;51.428;21.162;2022-07-06T11:59:58;1.98;;;1.00;;
44885;SDS011;36669;51.428;21.162;2022-07-06T12:02:26;2.10;;;1.10;;
44885;SDS011;36669;51.428;21.162;2022-07-06T12:04:53;5.28;;;1.15;;
44885;SDS011;36669;51.428;21.162;2022-07-06T12:07:19;4.65;;;1.20;;
44885;SDS011;36669;51.428;21.162;2022-07-06T12:09:46;1.95;;;1.10;;
44885;SDS011;36669;51.428;21.162;2022-07-06T12:12:14;1.55;;;0.93;;
44885;SDS011;36669;51.428;21.162;2022-07-06T12:14:42;3.10;;;1.30;;
44885;SDS011;36669;51.428;21.162;2022-07-06T12:17:14;1.25;;;1.00;;
44885;SDS011;36669;51.428;21.162;2022-07-06T12:19:42;2.20;;;1.30;;
44885;SDS011;36669;51.428;21.162;2022-07-06T12:22:10;4.38;;;1.40;;
44885;SDS011;36669;51.428;21.162;2022-07-06T12:24:42;4.47;;;1.20;;
44885;SDS011;36669;51.428;21.162;2022-07-06T12:27:19;1.33;;;0.93;;
44885;SDS011;36669;51.428;21.162;2022-07-06T12:29:49;6.68;;;1.20;;
44885;SDS011;36669;51.428;21.162;2022-07-06T12:32:20;2.05;;;1.13;;
44885;SDS011;36669;51.428;21.162;2022-07-06T12:35:03;3.60;;;1.33;;
44885;SDS011;36669;51.428;21.162;2022-07-06T12:37:34;3.40;;;1.20;;
44885;SDS011;36669;51.428;21.162;2022-07-06T12:40:02;4.82;;;1.35;;
44885;SDS011;36669;51.428;21.162;2022-07-06T12:42:51;2.53;;;1.10;;
44885;SDS011;36669;51.428;21.162;2022-07-06T12:45:18;7.18;;;1.20;;
44885;SDS011;36669;51.428;21.162;2022-07-06T12:50:36;2.70;;;1.10;;
44885;SDS011;36669;51.428;21.162;2022-07-06T12:53:06;5.18;;;0.82;;
44885;SDS011;36669;51.428;21.162;2022-07-06T12:58:38;1.88;;;1.20;;
44885;SDS011;36669;51.428;21.162;2022-07-06T13:01:04;5.10;;;1.33;;
44885;SDS011;36669;51.428;21.162;2022-07-06T13:03:39;3.85;;;1.15;;
44885;SDS011;36669;51.428;21.162;2022-07-06T13:06:07;2.85;;;1.20;;
44885;SDS011;36669;51.428;21.162;2022-07-06T13:08:33;1.15;;;0.80;;
44885;SDS011;36669;51.428;21.162;2022-07-06T13:10:59;2.97;;;1.35;;
44885;SDS011;36669;51.428;21.162;2022-07-06T13:13:27;1.95;;;1.10;;
44885;SDS011;36669;51.428;21.162;2022-07-06T13:15:54;4.43;;;1.27;;
44885;SDS011;36669;51.428;21.162;2022-07-06T13:18:20;2.25;;;1.13;;
44885;SDS011;36669;51.428;21.162;2022-07-06T13:20:46;2.58;;;1.25;;
44885;SDS011;36669;51.428;21.162;2022-07-06T13:23:14;2.30;;;1.25;;
44885;SDS011;36669;51.428;21.162;2022-07-06T13:25:40;5.55;;;1.30;;
44885;SDS011;36669;51.428;21.162;2022-07-06T13:28:06;2.42;;;1.00;;
44885;SDS011;36669;51.428;21.162;2022-07-06T13:30:33;2.90;;;1.00;;
44885;SDS011;36669;51.428;21.162;2022-07-06T13:33:01;5.43;;;1.00;;
44885;SDS011;36669;51.428;21.162;2022-07-06T13:35:29;4.65;;;0.88;;
44885;SDS011;36669;51.428;21.162;2022-07-06T13:37:57;2.40;;;1.20;;
44885;SDS011;36669;51.428;21.162;2022-07-06T13:40:22;1.80;;;0.80;;
44885;SDS011;36669;51.428;21.162;2022-07-06T13:42:50;4.63;;;1.17;;
44885;SDS011;36669;51.428;21.162;2022-07-06T13:45:17;2.83;;;0.80;;
44885;SDS011;36669;51.428;21.162;2022-07-06T13:47:44;1.90;;;0.80;;
44885;SDS011;36669;51.428;21.162;2022-07-06T13:50:10;4.60;;;0.63;;
44885;SDS011;36669;51.428;21.162;2022-07-06T13:52:36;2.67;;;0.60;;
44885;SDS011;36669;51.428;21.162;2022-07-06T13:55:03;2.42;;;1.00;;
44885;SDS011;36669;51.428;21.162;2022-07-06T13:57:31;2.38;;;0.82;;
44885;SDS011;36669;51.428;21.162;2022-07-06T13:59:58;1.70;;;0.65;;
44885;SDS011;36669;51.428;21.162;2022-07-06T14:02:23;1.30;;;0.80;;
44885;SDS011;36669;51.428;21.162;2022-07-06T14:04:50;3.00;;;0.80;;
44885;SDS011;36669;51.428;21.162;2022-07-06T14:07:16;3.45;;;0.90;;
44885;SDS011;36669;51.428;21.162;2022-07-06T14:09:44;2.75;;;0.90;;
44885;SDS011;36669;51.428;21.162;2022-07-06T14:12:11;2.15;;;0.77;;
44885;SDS011;36669;51.428;21.162;2022-07-06T14:14:39;3.88;;;0.90;;
44885;SDS011;36669;51.428;21.162;2022-07-06T14:17:06;2.45;;;0.90;;
44885;SDS011;36669;51.428;21.162;2022-07-06T14:19:33;1.52;;;0.75;;
44885;SDS011;36669;51.428;21.162;2022-07-06T14:22:00;2.65;;;0.90;;
44885;SDS011;36669;51.428;21.162;2022-07-06T14:24:26;1.30;;;0.70;;
44885;SDS011;36669;51.428;21.162;2022-07-06T14:26:54;2.40;;;0.80;;
44885;SDS011;36669;51.428;21.162;2022-07-06T14:29:20;1.25;;;0.80;;
44885;SDS011;36669;51.428;21.162;2022-07-06T14:31:48;2.92;;;0.90;;
44885;SDS011;36669;51.428;21.162;2022-07-06T14:34:13;1.90;;;0.77;;
44885;SDS011;36669;51.428;21.162;2022-07-06T14:36:42;3.83;;;1.10;;
44885;SDS011;36669;51.428;21.162;2022-07-06T14:39:10;2.33;;;0.90;;
44885;SDS011;36669;51.428;21.162;2022-07-06T14:41:38;5.53;;;1.00;;
44885;SDS011;36669;51.428;21.162;2022-07-06T14:44:05;6.65;;;0.77;;
44885;SDS011;36669;51.428;21.162;2022-07-06T14:46:31;1.58;;;0.85;;